Impacts TAF Board
For situational awareness. Not to be used for flight planning purposes.
IDs:

KIAH - Houston/Bush Intl, TX, US

Issued at 0526 UTC 18 Sep 2021
Updated at 0810 UTC 18 Sep 2021
Potential Impact None Slight Moderate High
Time0753Z 18/09Z 18/10Z 18/11Z 18/12Z 18/13Z 18/14Z 18/15Z 18/16Z 18/17Z 18/18Z 18/19Z 18/20Z 18/21Z>>
Type OBS PRVL PRVL PRVL PRVL PRVL PRVL PRVL PRVL PRVL PRVL PRVL PRVL PRVL
VIS 10 >6 6 6 6 6 6 6 >6 >6 >6 >6 >6 >6
CIG -- -- -- -- -- -- -- -- -- -- -- -- -- --
Cover SCT FEW FEW FEW FEW FEW FEW FEW FEW FEW FEW FEW SCT SCT
FltCat VFR VFR VFR VFR VFR VFR VFR VFR VFR VFR VFR VFR VFR VFR
WX -- -- BR BR BR BR BR BR VCSH VCSH VCSH VCSH VCTS VCTS
WDir VRB VRB VRB VRB VRB VRB VRB VRB 10 10 10 10 40 40
WSpd 0 0 3 3 3 3 3 3 5 5 5 5 5 5
WGst -- -- -- -- -- -- -- -- -- -- -- -- -- --
Raw TAF
KIAH 180526Z 1806/1912 00000KT P6SM FEW030
  FM181000 VRB03KT 6SM BR FEW025
  FM181600 01005KT P6SM VCSH FEW040
  FM182000 04005KT P6SM VCTS SCT050CB
  FM190000 VRB04KT P6SM FEW050


Raw METAR
KIAH 180753Z 00000KT 10SM SCT047 24/22 A2999 RMK AO2 SLP155 T02390217
KIAH 180653Z 34003KT 10SM FEW050 24/22 A2999 RMK AO2 SLP154 T02390222
KIAH 180553Z 00000KT 10SM CLR 23/22 A2998 RMK AO2 SLP152 T02330217 10283 20233 403220222 53004

METAR Board
Radar Display
Forecast Discussion
For situational awareness. Not to be used for flight planning purposes.